METAR Data
IDs: Format: Raw Decoded Include TAF

Data at: 0547 UTC 26 May 2022

METAR for:EDVE (Braunschweig Arpt, NI, DE)
Text:EDVE 260520Z AUTO 26011KT 9999 // BKN024/// OVC029/// 14/11 Q1016
Temperature: 14.0°C ( 57°F)
Dewpoint: 11.0°C ( 52°F) [RH = 82%]
Pressure (altimeter):30.00 inches Hg (1016.0 mb)
Winds:from the W (260 degrees) at 13 MPH (11 knots; 5.7 m/s)
Visibility:6 or more sm (10+ km)
Ceiling:2400 feet AGL
Clouds: broken clouds at 2400 feet AGL, overcast cloud deck at 2900 feet AGL